Rio Rancho, NM (87124)

3:30 PM MDT on September 04, 2015 (GMT -0600)
Western Hills | | Change Station
CLOSE
Current Station
Personal Weather Station
Location: Rio Rancho, NM
Elevation: 5486 ft
Nearby Weather Stations

Elev 5486 ft 35.26 °N, 106.69 °W | Updated 18 seconds ago

Overcast
Overcast
66.7 °F
Feels Like 66.7 °F
N
5.4
Wind Variable Wind from ENE
Gusts 7.6 mph

Today
High -- | Low -- °F
--% Chance of Precip.
Yesterday
High -- | Low -- °F
Precip. -- in
6:41 AM 7:29 PM
Waning Gibbous, 56% visible
Pressure 30.19 in
Visibility 8.0 miles
Clouds Scattered Clouds 7000 ft
Overcast 9000 ft
Dew Point 60 °F
Humidity 78%
Rainfall 0.00 in
Snow Depth Not available.
UV 3 out of 12
Pollen 6.20 out of 12
Air Quality Not available.
Flu Activity Not available.
METAR KAEG 042051Z 18013G19KT 8SM -RA SCT070 OVC090 19/14 A3019 RMK -SHRA
Pressure 30.19 in
Visibility 8.0 miles
Clouds Scattered Clouds 7000 ft
Overcast 9000 ft
Dew Point 60 °F
Humidity 78%
Rainfall 0.00 in
Snow Depth Not available.
UV 3 out of 12
Pollen 6.20 out of 12
Air Quality Not available.
Flu Activity Not available.
METAR KAEG 042051Z 18013G19KT 8SM -RA SCT070 OVC090 19/14 A3019 RMK -SHRA

10-Day Weather Forecast

×

Almanac

Astronomy

Sep. 04, 2015 Rise Set
Actual Time
Civil Twilight
Nautical Twilight
Astronomical Twilight
Moon
Length of Visible Light
Length of Day
Tomorrow will be .
, % of the Moon is Illuminated

Today's Extremes

State Highs State Lows

Community

WunderPhotos

Upload Photos

1,852,297 photos uploaded!

WunderBlogs® & News

Nearby

Air Quality

  Air Quality AQ Index Pollutant
Not available.

Snow Depth

Station Depth Elevation

Earthquake Activity

City Distance Mag. Time & Date
Minimum magnitude displayed is 2.5.

Coastal Water Temperatures

Place Temperature

Stations

Nearby Weather Stations

Station Location Temp. Windchill Dew Point Humidity Wind Precip. Elev Updated Type